createdAt,value
2022-09-20T00:02:03.372Z,6.97
2022-09-20T00:04:30.356Z,6.75
2022-09-20T00:06:58.207Z,4.32
2022-09-20T00:09:31.417Z,3.20
2022-09-20T00:11:58.367Z,6.50
2022-09-20T00:14:26.272Z,6.05
2022-09-20T00:16:54.332Z,3.92
2022-09-20T00:19:22.301Z,4.80
2022-09-20T00:21:50.261Z,5.93
2022-09-20T00:24:24.186Z,6.55
2022-09-20T00:26:52.492Z,8.88
2022-09-20T00:29:20.249Z,8.80
2022-09-20T00:31:53.319Z,6.78
2022-09-20T00:37:56.415Z,5.03
2022-09-20T00:43:23.692Z,6.53
2022-09-20T00:45:52.456Z,5.10
2022-09-20T00:48:30.345Z,7.35
2022-09-20T00:51:06.553Z,6.93
2022-09-20T00:53:45.505Z,6.18
2022-09-20T00:56:46.500Z,6.57
2022-09-20T00:59:22.550Z,6.20
2022-09-20T01:01:56.226Z,3.83
2022-09-20T01:04:27.436Z,7.88
2022-09-20T01:10:14.239Z,6.28
2022-09-20T01:13:13.365Z,4.55
2022-09-20T01:15:49.372Z,5.53
2022-09-20T01:21:14.824Z,5.97
2022-09-20T01:24:25.311Z,5.05
2022-09-20T01:27:18.903Z,5.88
2022-09-20T01:30:02.406Z,7.20
2022-09-20T01:32:48.789Z,7.55
2022-09-20T01:35:20.000Z,3.70
2022-09-20T01:38:44.753Z,5.18
2022-09-20T01:41:35.537Z,4.57
2022-09-20T01:44:13.488Z,6.03
2022-09-20T01:46:42.637Z,5.65
2022-09-20T01:49:42.408Z,8.43
2022-09-20T01:53:01.476Z,8.98
2022-09-20T01:56:02.072Z,6.25
2022-09-20T01:59:07.257Z,7.72
2022-09-20T02:01:53.061Z,6.45
2022-09-20T02:04:35.159Z,6.60
2022-09-20T02:07:36.145Z,8.30
2022-09-20T02:10:25.779Z,5.35
2022-09-20T02:13:03.485Z,10.40
2022-09-20T02:15:54.887Z,6.53
2022-09-20T02:18:47.135Z,6.53
2022-09-20T02:21:41.211Z,4.22
2022-09-20T02:24:23.274Z,6.95
2022-09-20T02:27:18.168Z,3.97
2022-09-20T02:30:19.774Z,7.57
2022-09-20T02:33:16.827Z,5.15
2022-09-20T02:35:51.786Z,8.23
2022-09-20T02:38:44.456Z,6.72
2022-09-20T02:41:30.567Z,8.13
2022-09-20T02:44:15.329Z,9.65
2022-09-20T02:46:42.359Z,4.70
2022-09-20T02:49:33.702Z,5.95
2022-09-20T02:52:15.307Z,6.05
2022-09-20T02:55:20.749Z,6.55
2022-09-20T02:58:15.620Z,3.90
2022-09-20T03:01:17.864Z,8.27
2022-09-20T03:04:08.023Z,6.78
2022-09-20T03:06:44.062Z,7.30
2022-09-20T03:09:38.541Z,5.25
2022-09-20T03:12:24.650Z,5.97
2022-09-20T03:15:24.128Z,7.63
2022-09-20T03:18:10.734Z,7.93
2022-09-20T03:21:24.197Z,8.30
2022-09-20T03:24:14.405Z,5.38
2022-09-20T03:27:19.689Z,7.93
2022-09-20T03:30:18.550Z,7.32
2022-09-20T03:33:29.474Z,9.18
2022-09-20T03:35:59.391Z,8.38
2022-09-20T03:38:44.528Z,5.43
2022-09-20T03:41:28.444Z,5.82
2022-09-20T03:43:56.153Z,5.53
2022-09-20T03:46:27.191Z,5.65
2022-09-20T03:49:22.278Z,7.65
2022-09-20T03:52:23.850Z,8.63
2022-09-20T03:55:10.308Z,5.18
2022-09-20T03:57:55.515Z,5.85
2022-09-20T04:00:50.173Z,7.10
2022-09-20T04:03:46.604Z,5.47
2022-09-20T04:06:45.133Z,6.55
2022-09-20T04:09:38.108Z,6.05
2022-09-20T04:12:16.455Z,5.25
2022-09-20T04:15:23.385Z,9.65
2022-09-20T04:18:35.457Z,9.43
2022-09-20T04:21:05.186Z,4.15
2022-09-20T04:24:27.084Z,6.07
2022-09-20T04:27:20.629Z,5.95
2022-09-20T04:30:06.983Z,5.53
2022-09-20T04:32:58.411Z,5.05
2022-09-20T04:36:12.457Z,6.72
2022-09-20T04:38:40.671Z,10.85
2022-09-20T04:41:54.784Z,5.85
2022-09-20T04:44:30.917Z,5.47
2022-09-20T04:50:25.443Z,6.85
2022-09-20T04:53:24.523Z,6.80
2022-09-20T04:56:03.078Z,9.82
2022-09-20T05:01:57.160Z,7.23
2022-09-20T05:05:10.120Z,8.55
2022-09-20T05:08:01.681Z,7.13
2022-09-20T05:10:38.148Z,4.65
2022-09-20T05:13:38.370Z,9.40
2022-09-20T05:16:20.788Z,8.05
2022-09-20T05:19:13.945Z,4.57
2022-09-20T05:22:43.946Z,6.03
2022-09-20T05:25:30.922Z,5.68
2022-09-20T05:28:30.432Z,7.88
2022-09-20T05:31:26.670Z,5.18
2022-09-20T05:34:39.378Z,7.22
2022-09-20T05:40:53.979Z,5.22
2022-09-20T05:43:34.046Z,4.65
2022-09-20T05:46:46.294Z,5.28
2022-09-20T05:49:36.988Z,6.38
2022-09-20T05:52:21.223Z,5.03
2022-09-20T05:55:29.842Z,4.47
2022-09-20T05:58:04.507Z,5.03
2022-09-20T06:01:14.955Z,5.07
2022-09-20T06:03:48.671Z,5.97
2022-09-20T06:07:04.091Z,6.43
2022-09-20T06:09:56.626Z,4.50
2022-09-20T06:12:50.757Z,6.10
2022-09-20T06:15:51.681Z,5.72
2022-09-20T06:18:29.349Z,5.50
2022-09-20T06:21:27.161Z,6.43
2022-09-20T06:26:54.828Z,4.93
2022-09-20T06:29:37.013Z,8.90
2022-09-20T06:32:11.461Z,6.95
2022-09-20T06:34:40.166Z,7.47
2022-09-20T06:38:00.000Z,6.05
2022-09-20T06:41:01.108Z,6.32
2022-09-20T06:43:31.321Z,5.65
2022-09-20T06:45:58.797Z,6.57
2022-09-20T06:48:31.171Z,5.38
2022-09-20T06:54:20.839Z,11.40
2022-09-20T06:56:55.282Z,10.40
2022-09-20T06:59:22.192Z,8.48
2022-09-20T07:01:50.179Z,7.30
2022-09-20T07:04:18.203Z,8.65
2022-09-20T07:06:51.239Z,9.07
2022-09-20T07:09:23.218Z,8.43
2022-09-20T07:11:50.153Z,6.50
2022-09-20T07:14:24.212Z,13.25
2022-09-20T07:16:53.481Z,6.70
2022-09-20T07:19:20.788Z,7.63
2022-09-20T07:21:48.303Z,8.80
2022-09-20T07:24:47.854Z,9.60
2022-09-20T07:27:21.495Z,8.60
2022-09-20T07:29:50.754Z,8.15
2022-09-20T07:32:21.930Z,8.60
2022-09-20T07:34:51.730Z,11.30
2022-09-20T07:37:25.209Z,10.98
2022-09-20T07:39:52.214Z,12.45
2022-09-20T07:42:20.253Z,18.25
2022-09-20T07:44:54.404Z,10.65
2022-09-20T07:47:26.539Z,12.00
2022-09-20T07:49:58.534Z,13.63
2022-09-20T07:52:26.169Z,15.82
2022-09-20T07:54:58.358Z,9.75
2022-09-20T07:57:26.401Z,10.45
2022-09-20T07:59:54.172Z,6.93
2022-09-20T08:02:26.284Z,8.13
2022-09-20T08:04:54.486Z,8.32
2022-09-20T08:07:22.323Z,8.20
2022-09-20T08:15:39.637Z,10.57
2022-09-20T08:18:34.386Z,16.17
2022-09-20T08:21:34.199Z,7.45
2022-09-20T08:24:03.940Z,7.70
2022-09-20T08:26:37.079Z,8.52
2022-09-20T08:29:08.279Z,8.15
2022-09-20T08:41:18.079Z,6.15
2022-09-20T08:43:48.096Z,6.28
2022-09-20T08:46:26.096Z,10.65
2022-09-20T08:48:55.852Z,7.55
2022-09-20T08:51:50.645Z,10.35
2022-09-20T08:54:18.884Z,5.80
2022-09-20T08:56:46.741Z,13.05
2022-09-20T08:59:17.318Z,5.93
2022-09-20T09:01:44.485Z,6.40
2022-09-20T09:04:16.461Z,8.95
2022-09-20T09:06:51.417Z,9.68
2022-09-20T09:09:29.202Z,7.22
2022-09-20T09:17:46.363Z,15.15
2022-09-20T09:20:24.013Z,4.43
2022-09-20T09:23:29.566Z,5.90
2022-09-20T09:25:56.296Z,8.27
2022-09-20T09:28:31.976Z,8.40
2022-09-20T09:31:23.029Z,7.65
2022-09-20T09:33:50.486Z,7.68
2022-09-20T09:36:29.996Z,7.25
2022-09-20T09:39:30.515Z,9.20
2022-09-20T09:42:01.094Z,6.45
2022-09-20T09:45:11.461Z,10.43
2022-09-20T09:47:38.440Z,6.20
2022-09-20T09:50:09.908Z,10.68
2022-09-20T09:53:15.369Z,9.38
2022-09-20T09:55:56.062Z,3.13
2022-09-20T09:58:32.939Z,7.68
2022-09-20T10:01:03.248Z,8.13
2022-09-20T10:04:14.206Z,10.25
2022-09-20T10:07:05.131Z,6.95
2022-09-20T10:09:41.318Z,8.52
2022-09-20T10:12:49.821Z,8.40
2022-09-20T10:15:28.161Z,4.90
2022-09-20T10:18:14.664Z,6.35
2022-09-20T10:21:08.029Z,7.57
2022-09-20T10:24:03.098Z,5.25
2022-09-20T10:26:52.580Z,6.57
2022-09-20T10:29:58.840Z,7.65
2022-09-20T10:33:25.365Z,6.25
2022-09-20T10:36:01.716Z,5.75
2022-09-20T10:38:39.177Z,3.50
2022-09-20T10:42:00.982Z,7.03
2022-09-20T10:44:58.994Z,5.45
2022-09-20T10:48:08.668Z,9.07
2022-09-20T10:50:53.915Z,6.10
2022-09-20T10:53:56.601Z,7.00
2022-09-20T10:56:26.908Z,11.60
2022-09-20T10:59:17.350Z,10.35
2022-09-20T11:01:47.256Z,5.28
2022-09-20T11:08:11.698Z,4.95
2022-09-20T11:10:54.187Z,4.18
2022-09-20T11:13:42.550Z,9.35
2022-09-20T11:16:18.708Z,6.07
2022-09-20T11:18:59.263Z,9.85
2022-09-20T11:21:54.815Z,7.75
2022-09-20T11:25:41.207Z,3.60
2022-09-20T11:28:31.819Z,5.70
2022-09-20T11:31:07.492Z,4.00
2022-09-20T11:33:49.144Z,3.83
2022-09-20T11:39:56.289Z,6.18
2022-09-20T11:42:49.299Z,5.40
2022-09-20T11:45:16.449Z,4.05
2022-09-20T11:47:57.195Z,5.50
2022-09-20T11:50:51.720Z,4.20
2022-09-20T11:53:46.057Z,6.25
2022-09-20T11:56:24.907Z,3.78
2022-09-20T11:58:59.034Z,4.72
2022-09-20T12:01:38.068Z,5.50
2022-09-20T12:04:39.014Z,6.53
2022-09-20T12:10:24.328Z,5.05
2022-09-20T12:12:59.555Z,7.90
2022-09-20T12:15:39.210Z,5.53
2022-09-20T12:18:29.223Z,4.75
2022-09-20T12:20:56.145Z,7.60
2022-09-20T12:23:42.552Z,4.90
2022-09-20T12:32:58.375Z,7.20
2022-09-20T12:35:35.577Z,4.13
2022-09-20T12:38:20.607Z,4.38
2022-09-20T12:41:08.613Z,4.18
2022-09-20T12:43:46.456Z,5.90
2022-09-20T12:46:34.037Z,7.00
2022-09-20T12:49:40.551Z,7.18
2022-09-20T12:52:56.085Z,6.07
2022-09-20T12:55:59.879Z,4.80
2022-09-20T12:58:51.436Z,3.35
2022-09-20T13:01:45.783Z,7.57
2022-09-20T13:04:39.973Z,3.90
2022-09-20T13:07:40.062Z,6.75
2022-09-20T13:10:30.630Z,5.32
2022-09-20T13:13:03.660Z,7.57
2022-09-20T13:15:57.135Z,5.78
2022-09-20T13:18:26.263Z,3.08
2022-09-20T13:23:55.359Z,5.78
2022-09-20T13:29:23.287Z,5.03
2022-09-20T13:31:50.982Z,4.93
2022-09-20T13:34:24.397Z,2.85
2022-09-20T13:37:01.955Z,3.80
2022-09-20T13:39:40.018Z,3.08
2022-09-20T13:42:19.876Z,2.83
2022-09-20T13:47:43.440Z,4.93
2022-09-20T13:50:30.551Z,3.83
2022-09-20T13:53:01.551Z,2.97
2022-09-20T13:55:37.542Z,4.50
2022-09-20T13:58:17.601Z,2.38
2022-09-20T14:00:54.918Z,3.35
2022-09-20T14:03:25.693Z,4.45
2022-09-20T14:09:35.048Z,7.20
2022-09-20T14:12:10.635Z,3.42
2022-09-20T14:14:39.181Z,6.40
2022-09-20T14:17:09.580Z,8.07
2022-09-20T14:19:43.952Z,5.28
2022-09-20T14:25:13.490Z,3.25
2022-09-20T14:27:41.226Z,2.40
2022-09-20T14:30:30.419Z,4.35
2022-09-20T14:32:59.137Z,4.75
2022-09-20T14:35:27.180Z,4.30
2022-09-20T14:38:04.450Z,3.42
2022-09-20T14:40:41.225Z,5.43
2022-09-20T14:43:24.214Z,3.05
2022-09-20T14:46:03.563Z,4.10
2022-09-20T14:48:38.603Z,2.80
2022-09-20T14:51:18.894Z,4.43
2022-09-20T14:54:12.555Z,2.28
2022-09-20T14:56:48.036Z,2.92
2022-09-20T14:59:20.001Z,2.38
2022-09-20T15:01:57.186Z,2.60
2022-09-20T15:04:25.732Z,4.80
2022-09-20T15:07:01.143Z,5.70
2022-09-20T15:09:28.493Z,4.38
2022-09-20T15:12:21.627Z,2.97
2022-09-20T15:14:50.381Z,3.30
2022-09-20T15:17:20.845Z,4.20
2022-09-20T15:19:50.139Z,8.90
2022-09-20T15:22:18.185Z,5.35
2022-09-20T15:24:46.408Z,6.90
2022-09-20T15:27:14.735Z,5.22
2022-09-20T15:29:42.256Z,3.03
2022-09-20T15:35:07.426Z,8.45
2022-09-20T15:37:34.684Z,3.38
2022-09-20T15:40:03.091Z,3.60
2022-09-20T15:42:35.205Z,5.22
2022-09-20T15:45:02.283Z,4.97
2022-09-20T15:47:30.938Z,4.18
2022-09-20T15:49:59.327Z,2.28
2022-09-20T15:55:51.833Z,3.28
2022-09-20T15:58:20.973Z,1.67
2022-09-20T16:03:31.056Z,3.47
2022-09-20T16:06:04.533Z,2.97
2022-09-20T16:08:37.550Z,4.38
2022-09-20T16:11:06.434Z,2.70
2022-09-20T16:13:43.993Z,5.22
2022-09-20T16:16:16.185Z,5.30
2022-09-20T16:19:07.961Z,7.05
2022-09-20T16:21:42.676Z,4.20
2022-09-20T16:24:22.154Z,4.90
2022-09-20T16:27:21.912Z,4.35
2022-09-20T16:29:55.760Z,3.63
2022-09-20T16:32:53.523Z,8.38
2022-09-20T16:35:26.202Z,2.72
2022-09-20T16:37:57.395Z,5.07
2022-09-20T16:40:24.217Z,3.15
2022-09-20T16:42:56.449Z,4.00
2022-09-20T16:45:24.474Z,3.00
2022-09-20T16:48:06.420Z,4.07
2022-09-20T16:50:36.200Z,6.53
2022-09-20T16:53:04.350Z,5.30
2022-09-20T16:55:33.911Z,5.82
2022-09-20T16:58:02.537Z,5.35
2022-09-20T17:00:31.460Z,5.85
2022-09-20T17:02:58.161Z,4.95
2022-09-20T17:08:18.259Z,6.82
2022-09-20T17:10:46.223Z,5.93
2022-09-20T17:13:15.394Z,3.85
2022-09-20T17:15:42.226Z,5.68
2022-09-20T17:18:14.884Z,6.90
2022-09-20T17:21:19.062Z,9.07
2022-09-20T17:24:00.296Z,5.97
2022-09-20T17:26:34.321Z,17.15
2022-09-20T17:29:28.396Z,13.38
2022-09-20T17:32:22.229Z,9.57
2022-09-20T17:34:50.166Z,10.65
2022-09-20T17:37:44.128Z,8.50
2022-09-20T17:40:12.231Z,7.53
2022-09-20T17:42:40.545Z,11.02
2022-09-20T17:48:00.259Z,11.05
2022-09-20T17:50:28.251Z,12.73
2022-09-20T17:55:57.619Z,8.57
2022-09-20T17:58:24.459Z,9.88
2022-09-20T18:00:56.513Z,8.23
2022-09-20T18:03:50.275Z,9.95
2022-09-20T18:06:52.345Z,16.85
2022-09-20T18:09:22.819Z,22.45
2022-09-20T18:17:36.455Z,15.85
2022-09-20T18:20:04.561Z,15.93
2022-09-20T18:22:32.137Z,14.73
2022-09-20T18:25:00.179Z,15.07
2022-09-20T18:27:29.361Z,11.88
2022-09-20T18:29:56.613Z,8.98
2022-09-20T18:32:33.245Z,10.60
2022-09-20T18:35:00.172Z,14.43
2022-09-20T18:40:27.895Z,8.27
2022-09-20T18:43:02.390Z,7.20
2022-09-20T18:45:58.524Z,9.52
2022-09-20T18:48:32.236Z,12.93
2022-09-20T18:51:32.350Z,9.38
2022-09-20T18:54:30.108Z,10.90
2022-09-20T18:57:03.610Z,10.38
2022-09-20T18:59:37.388Z,8.55
2022-09-20T19:02:50.772Z,8.20
2022-09-20T19:05:39.643Z,14.68
2022-09-20T19:08:34.333Z,8.80
2022-09-20T19:11:08.112Z,11.90
2022-09-20T19:13:58.540Z,11.20
2022-09-20T19:16:38.894Z,11.80
2022-09-20T19:22:06.448Z,10.60
2022-09-20T19:24:55.477Z,12.35
2022-09-20T19:27:23.413Z,10.60
2022-09-20T19:30:16.863Z,12.90
2022-09-20T19:32:44.501Z,8.20
2022-09-20T19:38:35.169Z,7.93
2022-09-20T19:44:06.058Z,8.77
2022-09-20T19:47:05.529Z,8.88
2022-09-20T19:49:47.343Z,6.95
2022-09-20T19:52:15.296Z,8.40
2022-09-20T19:55:13.758Z,8.80
2022-09-20T19:57:47.302Z,7.38
2022-09-20T20:00:16.831Z,7.20
2022-09-20T20:02:45.741Z,8.40
2022-09-20T20:05:26.320Z,6.93
2022-09-20T20:08:27.184Z,9.52
2022-09-20T20:11:09.118Z,8.90
2022-09-20T20:14:08.009Z,8.30
2022-09-20T20:17:10.357Z,10.75
2022-09-20T20:20:05.311Z,13.63
2022-09-20T20:22:56.804Z,9.18
2022-09-20T20:25:48.220Z,12.57
2022-09-20T20:28:16.290Z,12.93
2022-09-20T20:30:44.199Z,17.15
2022-09-20T20:33:20.923Z,11.70
2022-09-20T20:35:55.788Z,10.50
2022-09-20T20:38:28.461Z,10.45
2022-09-20T20:41:05.921Z,9.48
2022-09-20T20:43:42.013Z,9.07
2022-09-20T20:46:14.093Z,7.60
2022-09-20T20:48:42.680Z,11.15
2022-09-20T20:51:47.158Z,8.25
2022-09-20T20:54:14.339Z,7.78
2022-09-20T20:56:42.617Z,7.95
2022-09-20T20:59:10.426Z,8.90
2022-09-20T21:01:42.945Z,10.07
2022-09-20T21:04:11.502Z,7.93
2022-09-20T21:06:43.070Z,8.50
2022-09-20T21:09:16.544Z,7.07
2022-09-20T21:11:44.759Z,9.10
2022-09-20T21:14:17.795Z,7.38
2022-09-20T21:16:51.785Z,11.88
2022-09-20T21:19:29.246Z,17.50
2022-09-20T21:21:56.173Z,10.80
2022-09-20T21:24:24.276Z,8.20
2022-09-20T21:26:53.429Z,9.13
2022-09-20T21:29:20.664Z,8.90
2022-09-20T21:32:14.412Z,8.73
2022-09-20T21:37:34.344Z,9.43
2022-09-20T21:42:55.887Z,9.80
2022-09-20T21:45:29.528Z,8.85
2022-09-20T21:47:56.151Z,7.50
2022-09-20T21:50:24.157Z,8.90
2022-09-20T21:52:52.129Z,9.65
2022-09-20T21:55:44.447Z,10.10
2022-09-20T21:58:12.136Z,8.32
2022-09-20T22:00:45.191Z,14.75
2022-09-20T22:03:12.299Z,13.77
2022-09-20T22:06:20.647Z,13.30
2022-09-20T22:08:53.705Z,13.90
2022-09-20T22:11:48.082Z,12.70
2022-09-20T22:14:19.065Z,13.68
2022-09-20T22:16:47.668Z,14.02
2022-09-20T22:19:21.308Z,15.70
2022-09-20T22:21:49.922Z,11.25
2022-09-20T22:24:18.721Z,14.45
2022-09-20T22:26:57.246Z,11.10
2022-09-20T22:29:24.271Z,12.60
2022-09-20T22:31:52.187Z,13.60
2022-09-20T22:34:24.881Z,10.90
2022-09-20T22:37:04.555Z,10.68
2022-09-20T22:39:34.706Z,10.88
2022-09-20T22:42:03.270Z,10.65
2022-09-20T22:44:33.508Z,10.57
2022-09-20T22:47:26.284Z,10.82
2022-09-20T22:49:58.268Z,8.82
2022-09-20T22:52:26.179Z,10.02
2022-09-20T22:54:54.105Z,11.50
2022-09-20T22:57:26.345Z,7.18
2022-09-20T22:59:54.212Z,8.75
2022-09-20T23:02:27.255Z,10.20
2022-09-20T23:04:55.304Z,9.95
2022-09-20T23:07:28.149Z,8.68
2022-09-20T23:10:01.160Z,10.52
2022-09-20T23:12:28.157Z,9.90
2022-09-20T23:15:01.201Z,9.98
2022-09-20T23:17:28.137Z,9.57
2022-09-20T23:19:56.157Z,10.05
2022-09-20T23:22:24.379Z,9.73
2022-09-20T23:24:52.143Z,9.93
2022-09-20T23:27:25.161Z,7.72
2022-09-20T23:29:52.176Z,12.00
2022-09-20T23:35:12.146Z,8.98
2022-09-20T23:38:05.600Z,9.77
2022-09-20T23:40:33.719Z,8.80
2022-09-20T23:43:02.135Z,9.43
2022-09-20T23:45:34.259Z,8.27
2022-09-20T23:48:02.453Z,10.52
2022-09-20T23:50:30.149Z,9.82
2022-09-20T23:53:02.179Z,10.02
2022-09-20T23:55:30.243Z,7.72
2022-09-20T23:58:48.611Z,10.02
